createdAt,value
2023-01-08T00:01:15.838Z,5.97
2023-01-08T00:03:43.244Z,6.25
2023-01-08T00:06:15.147Z,5.82
2023-01-08T00:08:41.857Z,7.10
2023-01-08T00:11:08.701Z,7.13
2023-01-08T00:13:35.464Z,6.43
2023-01-08T00:16:06.971Z,5.78
2023-01-08T00:18:33.851Z,5.75
2023-01-08T00:21:00.860Z,6.97
2023-01-08T00:23:27.920Z,6.45
2023-01-08T00:25:54.622Z,6.40
2023-01-08T00:28:21.174Z,6.07
2023-01-08T00:30:48.580Z,6.10
2023-01-08T00:33:15.969Z,6.00
2023-01-08T00:35:42.829Z,6.55
2023-01-08T00:38:09.401Z,5.88
2023-01-08T00:40:36.825Z,5.97
2023-01-08T00:43:03.901Z,5.72
2023-01-08T00:45:30.772Z,4.50
2023-01-08T00:47:57.886Z,4.97
2023-01-08T00:50:24.968Z,6.35
2023-01-08T00:52:51.617Z,6.65
2023-01-08T00:55:18.144Z,6.53
2023-01-08T00:57:45.145Z,5.95
2023-01-08T01:00:15.384Z,5.68
2023-01-08T01:02:42.307Z,6.80
2023-01-08T01:05:10.010Z,5.32
2023-01-08T01:07:37.167Z,5.70
2023-01-08T01:10:03.872Z,6.43
2023-01-08T01:12:30.412Z,5.10
2023-01-08T01:14:57.036Z,5.35
2023-01-08T01:17:23.543Z,5.63
2023-01-08T01:19:50.066Z,5.25
2023-01-08T01:22:16.665Z,4.97
2023-01-08T01:24:43.895Z,4.95
2023-01-08T01:27:10.404Z,5.07
2023-01-08T01:29:37.121Z,4.38
2023-01-08T01:32:03.770Z,4.90
2023-01-08T01:34:30.339Z,5.32
2023-01-08T01:36:56.849Z,4.40
2023-01-08T01:39:23.517Z,5.13
2023-01-08T01:41:50.607Z,5.10
2023-01-08T01:44:38.579Z,4.95
2023-01-08T01:47:20.543Z,5.68
2023-01-08T01:50:21.742Z,4.13
2023-01-08T01:52:56.524Z,4.25
2023-01-08T01:55:23.189Z,4.72
2023-01-08T01:57:55.201Z,4.68
2023-01-08T02:00:23.360Z,5.43
2023-01-08T02:02:51.046Z,5.93
2023-01-08T02:05:17.680Z,5.13
2023-01-08T02:08:11.781Z,5.65
2023-01-08T02:10:53.600Z,5.25
2023-01-08T02:13:41.080Z,4.68
2023-01-08T02:16:19.837Z,4.75
2023-01-08T02:19:02.926Z,4.85
2023-01-08T02:21:41.822Z,4.85
2023-01-08T02:24:23.843Z,5.50
2023-01-08T02:26:54.581Z,5.97
2023-01-08T02:29:25.429Z,5.10
2023-01-08T02:31:52.389Z,5.10
2023-01-08T02:34:18.916Z,5.35
2023-01-08T02:36:48.335Z,5.03
2023-01-08T02:39:23.222Z,5.55
2023-01-08T02:41:49.655Z,5.63
2023-01-08T02:44:23.229Z,5.72
2023-01-08T02:46:54.424Z,4.40
2023-01-08T02:49:24.231Z,5.45
2023-01-08T02:51:54.640Z,4.90
2023-01-08T02:54:25.861Z,5.55
2023-01-08T02:56:59.731Z,5.22
2023-01-08T02:59:27.967Z,4.53
2023-01-08T03:01:54.709Z,5.32
2023-01-08T03:04:24.058Z,6.00
2023-01-08T03:06:50.915Z,5.88
2023-01-08T03:09:17.787Z,7.00
2023-01-08T03:12:07.115Z,8.45
2023-01-08T03:14:44.155Z,8.18
2023-01-08T03:17:25.476Z,8.30
2023-01-08T03:20:00.662Z,9.05
2023-01-08T03:22:28.634Z,8.90
2023-01-08T03:24:58.122Z,8.93
2023-01-08T03:27:30.085Z,9.80
2023-01-08T03:29:59.216Z,8.90
2023-01-08T03:32:29.204Z,10.52
2023-01-08T03:34:58.986Z,10.00
2023-01-08T03:37:30.643Z,9.60
2023-01-08T03:40:25.029Z,10.00
2023-01-08T03:42:51.779Z,9.38
2023-01-08T03:45:18.916Z,9.05
2023-01-08T03:47:46.486Z,9.30
2023-01-08T03:50:21.117Z,9.57
2023-01-08T03:55:14.080Z,10.30
2023-01-08T03:57:40.585Z,11.13
2023-01-08T04:00:07.561Z,10.35
2023-01-08T04:02:34.225Z,10.82
2023-01-08T04:05:00.782Z,11.48
2023-01-08T04:07:27.361Z,10.57
2023-01-08T04:09:53.832Z,10.95
2023-01-08T04:12:20.340Z,11.00
2023-01-08T04:14:46.798Z,11.35
2023-01-08T04:17:13.675Z,11.50
2023-01-08T04:19:40.595Z,11.52
2023-01-08T04:22:07.215Z,11.48
2023-01-08T04:24:33.726Z,12.00
2023-01-08T04:27:00.313Z,14.73
2023-01-08T04:29:27.337Z,12.63
2023-01-08T04:31:54.011Z,13.07
2023-01-08T04:34:20.651Z,12.27
2023-01-08T04:36:47.487Z,11.80
2023-01-08T04:39:14.132Z,10.65
2023-01-08T04:41:40.674Z,11.18
2023-01-08T04:44:07.286Z,11.57
2023-01-08T04:46:34.190Z,11.45
2023-01-08T04:49:00.763Z,11.75
2023-01-08T04:51:27.266Z,10.02
2023-01-08T04:53:53.839Z,10.10
2023-01-08T04:56:20.557Z,10.40
2023-01-08T04:58:47.201Z,9.77
2023-01-08T05:01:25.301Z,9.50
2023-01-08T05:04:01.113Z,10.35
2023-01-08T05:06:29.520Z,9.80
2023-01-08T05:08:56.509Z,10.60
2023-01-08T05:11:23.933Z,10.65
2023-01-08T05:13:52.322Z,10.93
2023-01-08T05:16:19.182Z,10.82
2023-01-08T05:18:46.104Z,10.98
2023-01-08T05:21:13.682Z,11.18
2023-01-08T05:23:40.764Z,10.80
2023-01-08T05:26:07.628Z,10.15
2023-01-08T05:28:34.941Z,11.25
2023-01-08T05:31:01.786Z,10.93
2023-01-08T05:33:28.458Z,9.82
2023-01-08T05:35:55.114Z,9.98
2023-01-08T05:38:21.673Z,9.23
2023-01-08T05:40:48.180Z,9.95
2023-01-08T05:43:14.739Z,8.40
2023-01-08T05:45:41.221Z,8.93
2023-01-08T05:48:08.152Z,8.45
2023-01-08T05:50:35.540Z,8.98
2023-01-08T05:53:06.625Z,9.25
2023-01-08T05:55:33.784Z,9.55
2023-01-08T05:58:05.507Z,8.73
2023-01-08T06:00:33.202Z,9.15
2023-01-08T06:02:59.852Z,7.90
2023-01-08T06:05:26.492Z,8.98
2023-01-08T06:07:53.045Z,8.13
2023-01-08T06:10:19.611Z,8.93
2023-01-08T06:12:46.196Z,9.05
2023-01-08T06:15:12.949Z,9.45
2023-01-08T06:17:39.566Z,9.52
2023-01-08T06:20:06.523Z,8.60
2023-01-08T06:22:34.560Z,8.65
2023-01-08T06:25:01.388Z,9.57
2023-01-08T06:27:27.887Z,9.10
2023-01-08T06:29:54.459Z,9.57
2023-01-08T06:32:21.056Z,9.27
2023-01-08T06:34:47.661Z,10.63
2023-01-08T06:37:14.214Z,9.40
2023-01-08T06:39:40.801Z,8.43
2023-01-08T06:42:07.337Z,8.00
2023-01-08T06:44:33.955Z,8.77
2023-01-08T06:47:00.756Z,8.55
2023-01-08T06:49:27.221Z,9.05
2023-01-08T06:51:53.735Z,8.85
2023-01-08T06:54:20.326Z,9.45
2023-01-08T06:56:54.073Z,9.52
2023-01-08T06:59:21.605Z,7.38
2023-01-08T07:01:48.493Z,8.57
2023-01-08T07:04:15.133Z,8.77
2023-01-08T07:06:41.588Z,8.50
2023-01-08T07:09:12.582Z,8.95
2023-01-08T07:11:39.754Z,8.63
2023-01-08T07:14:06.488Z,8.52
2023-01-08T07:16:33.600Z,7.85
2023-01-08T07:19:00.311Z,8.73
2023-01-08T07:21:26.812Z,7.50
2023-01-08T07:23:53.349Z,6.82
2023-01-08T07:26:19.821Z,7.13
2023-01-08T07:28:47.013Z,6.57
2023-01-08T07:31:13.633Z,6.28
2023-01-08T07:33:40.218Z,6.80
2023-01-08T07:36:07.278Z,7.00
2023-01-08T07:38:33.810Z,6.47
2023-01-08T07:41:00.450Z,6.97
2023-01-08T07:43:27.670Z,6.90
2023-01-08T07:45:54.147Z,6.85
2023-01-08T07:48:20.625Z,6.65
2023-01-08T07:50:47.207Z,6.63
2023-01-08T07:53:16.933Z,7.15
2023-01-08T07:55:43.547Z,6.65
2023-01-08T07:58:11.918Z,7.07
2023-01-08T08:00:39.247Z,7.15
2023-01-08T08:03:07.819Z,7.80
2023-01-08T08:05:35.130Z,7.38
2023-01-08T08:08:02.071Z,6.55
2023-01-08T08:10:28.965Z,7.47
2023-01-08T08:12:55.560Z,6.60
2023-01-08T08:15:22.155Z,7.53
2023-01-08T08:17:49.161Z,7.20
2023-01-08T08:20:16.093Z,6.95
2023-01-08T08:22:42.715Z,6.60
2023-01-08T08:25:09.844Z,6.80
2023-01-08T08:27:36.680Z,7.28
2023-01-08T08:30:05.830Z,7.20
2023-01-08T08:32:32.332Z,7.20
2023-01-08T08:34:58.871Z,7.78
2023-01-08T08:37:25.414Z,7.00
2023-01-08T08:39:52.285Z,7.55
2023-01-08T08:42:19.118Z,7.55
2023-01-08T08:44:45.698Z,6.28
2023-01-08T08:47:12.676Z,7.80
2023-01-08T08:49:40.883Z,7.30
2023-01-08T08:52:07.441Z,7.68
2023-01-08T08:54:34.066Z,6.95
2023-01-08T08:57:00.664Z,6.55
2023-01-08T08:59:27.338Z,7.75
2023-01-08T09:01:53.986Z,7.03
2023-01-08T09:04:20.594Z,6.80
2023-01-08T09:06:47.055Z,7.28
2023-01-08T09:09:15.523Z,7.43
2023-01-08T09:11:42.355Z,7.00
2023-01-08T09:14:10.029Z,7.55
2023-01-08T09:16:37.309Z,7.13
2023-01-08T09:19:04.205Z,6.22
2023-01-08T09:21:30.707Z,9.90
2023-01-08T09:23:57.275Z,6.63
2023-01-08T09:26:23.858Z,5.97
2023-01-08T09:28:50.413Z,6.68
2023-01-08T09:31:17.035Z,5.22
2023-01-08T09:33:43.562Z,4.88
2023-01-08T09:36:14.000Z,5.35
2023-01-08T09:38:40.843Z,5.07
2023-01-08T09:41:30.632Z,5.20
2023-01-08T09:43:59.548Z,5.45
2023-01-08T09:46:28.602Z,5.93
2023-01-08T09:49:04.149Z,4.88
2023-01-08T09:51:36.613Z,4.97
2023-01-08T09:54:04.496Z,4.10
2023-01-08T09:56:33.087Z,4.28
2023-01-08T09:59:01.812Z,4.63
2023-01-08T10:01:31.328Z,4.97
2023-01-08T10:04:11.751Z,4.60
2023-01-08T10:06:40.501Z,5.63
2023-01-08T10:09:12.654Z,5.13
2023-01-08T10:11:43.424Z,5.38
2023-01-08T10:14:22.295Z,5.45
2023-01-08T10:16:55.871Z,5.25
2023-01-08T10:19:23.348Z,5.03
2023-01-08T10:21:50.569Z,5.03
2023-01-08T10:24:17.178Z,4.97
2023-01-08T10:26:43.946Z,5.13
2023-01-08T10:29:16.940Z,5.10
2023-01-08T10:31:47.356Z,6.22
2023-01-08T10:34:24.764Z,5.18
2023-01-08T10:36:53.421Z,5.03
2023-01-08T10:39:25.535Z,6.18
2023-01-08T10:41:55.033Z,5.68
2023-01-08T10:44:24.605Z,5.40
2023-01-08T10:46:55.975Z,5.15
2023-01-08T10:49:44.108Z,6.60
2023-01-08T10:52:40.261Z,5.38
2023-01-08T10:55:21.403Z,5.18
2023-01-08T10:58:13.775Z,6.30
2023-01-08T11:00:41.191Z,6.18
2023-01-08T11:03:18.926Z,6.22
2023-01-08T11:05:46.098Z,5.82
2023-01-08T11:08:23.130Z,5.55
2023-01-08T11:10:55.910Z,5.25
2023-01-08T11:13:23.842Z,4.97
2023-01-08T11:16:02.301Z,6.47
2023-01-08T11:18:29.090Z,5.65
2023-01-08T11:21:18.436Z,5.47
2023-01-08T11:23:45.096Z,5.18
2023-01-08T11:26:17.108Z,5.18
2023-01-08T11:29:02.502Z,5.18
2023-01-08T11:31:33.576Z,4.72
2023-01-08T11:34:12.346Z,4.57
2023-01-08T11:36:48.994Z,5.38
2023-01-08T11:39:16.263Z,5.25
2023-01-08T11:42:13.199Z,5.30
2023-01-08T11:44:54.139Z,6.22
2023-01-08T11:47:38.927Z,5.93
2023-01-08T11:52:55.605Z,5.90
2023-01-08T11:55:53.590Z,5.40
2023-01-08T11:58:28.547Z,5.57
2023-01-08T12:01:25.338Z,5.70
2023-01-08T12:04:16.076Z,5.55
2023-01-08T12:06:49.978Z,6.68
2023-01-08T12:09:33.653Z,8.10
2023-01-08T12:12:07.586Z,6.20
2023-01-08T12:14:52.957Z,5.80
2023-01-08T12:17:19.441Z,5.68
2023-01-08T12:19:59.775Z,5.47
2023-01-08T12:22:34.214Z,5.90
2023-01-08T12:27:55.231Z,5.32
2023-01-08T12:30:56.719Z,5.22
2023-01-08T12:33:38.468Z,6.03
2023-01-08T12:36:33.236Z,7.13
2023-01-08T12:39:14.088Z,7.15
2023-01-08T12:41:43.088Z,6.10
2023-01-08T12:44:12.171Z,5.07
2023-01-08T12:46:43.695Z,5.28
2023-01-08T12:49:16.516Z,4.90
2023-01-08T12:51:46.152Z,4.85
2023-01-08T12:54:39.875Z,4.68
2023-01-08T12:57:27.224Z,5.20
2023-01-08T12:59:56.397Z,5.18
2023-01-08T13:02:42.143Z,6.38
2023-01-08T13:05:33.393Z,7.22
2023-01-08T13:08:06.762Z,8.05
2023-01-08T13:10:48.204Z,10.93
2023-01-08T13:13:32.913Z,5.72
2023-01-08T13:16:11.502Z,5.32
2023-01-08T13:18:38.907Z,4.70
2023-01-08T13:21:07.228Z,5.18
2023-01-08T13:23:35.476Z,4.53
2023-01-08T13:26:06.596Z,3.25
2023-01-08T13:28:38.848Z,5.07
2023-01-08T13:31:27.289Z,4.78
2023-01-08T13:33:55.461Z,4.53
2023-01-08T13:36:23.370Z,5.28
2023-01-08T13:39:04.368Z,5.13
2023-01-08T13:41:33.745Z,4.95
2023-01-08T13:44:05.214Z,4.75
2023-01-08T13:46:38.268Z,6.53
2023-01-08T13:49:18.485Z,5.55
2023-01-08T13:51:47.414Z,6.10
2023-01-08T13:54:14.833Z,4.55
2023-01-08T13:56:43.676Z,4.88
2023-01-08T13:59:41.335Z,7.00
2023-01-08T14:02:31.484Z,6.55
2023-01-08T14:05:00.350Z,5.63
2023-01-08T14:07:27.632Z,5.88
2023-01-08T14:09:54.742Z,5.03
2023-01-08T14:12:24.113Z,6.45
2023-01-08T14:14:53.532Z,5.45
2023-01-08T14:17:23.247Z,5.38
2023-01-08T14:19:49.953Z,5.97
2023-01-08T14:22:26.474Z,7.88
2023-01-08T14:24:57.332Z,9.48
2023-01-08T14:27:29.675Z,11.20
2023-01-08T14:29:58.231Z,10.85
2023-01-08T14:32:29.285Z,8.65
2023-01-08T14:34:58.453Z,8.07
2023-01-08T14:37:25.106Z,7.57
2023-01-08T14:39:54.646Z,7.18
2023-01-08T14:42:40.116Z,7.18
2023-01-08T14:45:24.708Z,6.15
2023-01-08T14:47:57.275Z,6.32
2023-01-08T14:50:35.924Z,6.10
2023-01-08T14:53:05.502Z,5.60
2023-01-08T14:55:34.301Z,5.60
2023-01-08T14:58:01.155Z,5.70
2023-01-08T15:00:31.240Z,5.47
2023-01-08T15:02:58.028Z,6.15
2023-01-08T15:05:24.594Z,6.65
2023-01-08T15:07:58.682Z,6.88
2023-01-08T15:10:42.769Z,6.45
2023-01-08T15:13:34.011Z,6.10
2023-01-08T15:16:08.981Z,6.40
2023-01-08T15:18:45.745Z,6.05
2023-01-08T15:21:20.380Z,5.57
2023-01-08T15:23:50.622Z,6.57
2023-01-08T15:26:18.141Z,5.25
2023-01-08T15:28:56.153Z,4.53
2023-01-08T15:31:53.118Z,6.78
2023-01-08T15:34:20.735Z,5.90
2023-01-08T15:36:47.910Z,5.82
2023-01-08T15:39:14.429Z,5.38
2023-01-08T15:41:59.441Z,6.10
2023-01-08T15:44:27.730Z,5.80
2023-01-08T15:46:54.486Z,4.95
2023-01-08T15:49:21.038Z,4.78
2023-01-08T15:51:49.839Z,4.68
2023-01-08T15:54:16.612Z,4.30
2023-01-08T15:56:43.325Z,5.07
2023-01-08T15:59:10.000Z,5.57
2023-01-08T16:01:36.545Z,6.82
2023-01-08T16:04:04.018Z,5.90
2023-01-08T16:06:31.360Z,6.88
2023-01-08T16:09:00.293Z,5.82
2023-01-08T16:11:27.000Z,5.30
2023-01-08T16:13:53.650Z,5.38
2023-01-08T16:16:21.358Z,6.05
2023-01-08T16:18:48.053Z,5.65
2023-01-08T16:21:14.636Z,6.75
2023-01-08T16:23:41.633Z,6.13
2023-01-08T16:26:10.507Z,7.00
2023-01-08T16:28:37.378Z,7.85
2023-01-08T16:31:05.444Z,7.30
2023-01-08T16:33:32.218Z,7.38
2023-01-08T16:36:00.520Z,6.60
2023-01-08T16:38:27.557Z,6.72
2023-01-08T16:40:58.518Z,5.53
2023-01-08T16:43:27.158Z,6.57
2023-01-08T16:45:55.073Z,6.20
2023-01-08T16:48:23.234Z,4.78
2023-01-08T16:50:49.865Z,5.40
2023-01-08T16:53:21.587Z,5.95
2023-01-08T16:55:48.066Z,5.53
2023-01-08T16:58:14.658Z,6.32
2023-01-08T17:00:41.248Z,6.45
2023-01-08T17:03:07.799Z,6.90
2023-01-08T17:05:36.864Z,7.00
2023-01-08T17:08:03.912Z,8.48
2023-01-08T17:10:30.542Z,8.05
2023-01-08T17:12:57.106Z,7.70
2023-01-08T17:15:23.608Z,6.63
2023-01-08T17:17:50.156Z,6.63
2023-01-08T17:20:19.716Z,6.90
2023-01-08T17:22:46.963Z,6.97
2023-01-08T17:25:13.558Z,5.97
2023-01-08T17:27:41.706Z,6.97
2023-01-08T17:30:10.873Z,6.68
2023-01-08T17:32:37.448Z,6.28
2023-01-08T17:35:05.482Z,5.05
2023-01-08T17:37:32.808Z,4.57
2023-01-08T17:40:01.285Z,4.85
2023-01-08T17:42:29.654Z,4.60
2023-01-08T17:44:58.978Z,3.90
2023-01-08T17:47:25.965Z,4.13
2023-01-08T17:49:54.343Z,4.32
2023-01-08T17:52:23.211Z,4.90
2023-01-08T17:54:50.943Z,4.00
2023-01-08T17:57:19.262Z,3.85
2023-01-08T17:59:46.553Z,4.32
2023-01-08T18:02:16.149Z,3.88
2023-01-08T18:04:44.052Z,3.67
2023-01-08T18:07:10.992Z,4.53
2023-01-08T18:09:37.662Z,3.72
2023-01-08T18:12:04.307Z,4.43
2023-01-08T18:14:30.883Z,4.43
2023-01-08T18:16:57.572Z,4.03
2023-01-08T18:19:26.166Z,4.80
2023-01-08T18:21:52.770Z,4.82
2023-01-08T18:24:19.343Z,4.10
2023-01-08T18:26:46.645Z,5.63
2023-01-08T18:29:13.357Z,5.50
2023-01-08T18:31:41.366Z,5.32
2023-01-08T18:34:09.042Z,5.20
2023-01-08T18:36:36.665Z,5.32
2023-01-08T18:39:03.599Z,5.03
2023-01-08T18:41:48.625Z,5.05
2023-01-08T18:44:15.368Z,4.68
2023-01-08T18:46:42.098Z,4.40
2023-01-08T18:49:08.586Z,4.55
2023-01-08T18:51:35.115Z,3.83
2023-01-08T18:54:03.063Z,3.20
2023-01-08T18:56:31.935Z,3.50
2023-01-08T18:58:58.717Z,3.13
2023-01-08T19:01:25.811Z,3.58
2023-01-08T19:03:52.300Z,3.65
2023-01-08T19:06:18.951Z,2.67
2023-01-08T19:08:46.253Z,3.42
2023-01-08T19:11:13.516Z,3.40
2023-01-08T19:13:41.162Z,2.30
2023-01-08T19:16:11.766Z,2.88
2023-01-08T19:18:38.425Z,2.22
2023-01-08T19:21:09.665Z,3.40
2023-01-08T19:23:36.462Z,4.00
2023-01-08T19:26:07.106Z,2.88
2023-01-08T19:28:33.664Z,2.22
2023-01-08T19:31:01.103Z,2.20
2023-01-08T19:33:27.968Z,2.28
2023-01-08T19:35:54.575Z,2.40
2023-01-08T19:38:21.309Z,2.17
2023-01-08T19:40:47.856Z,1.85
2023-01-08T19:43:32.651Z,2.28
2023-01-08T19:48:33.100Z,2.42
2023-01-08T19:50:59.997Z,2.42
2023-01-08T19:53:26.588Z,2.58
2023-01-08T19:55:53.201Z,2.28
2023-01-08T19:58:20.510Z,2.63
2023-01-08T20:00:47.126Z,1.90
2023-01-08T20:03:13.875Z,2.28
2023-01-08T20:05:42.002Z,2.05
2023-01-08T20:08:08.562Z,2.88
2023-01-08T20:10:35.071Z,1.70
2023-01-08T20:13:01.653Z,2.67
2023-01-08T20:15:28.979Z,2.30
2023-01-08T20:17:55.699Z,2.28
2023-01-08T20:20:22.276Z,2.33
2023-01-08T20:22:48.833Z,1.75
2023-01-08T20:25:16.393Z,1.52
2023-01-08T20:27:42.901Z,1.60
2023-01-08T20:30:10.463Z,1.38
2023-01-08T20:32:37.163Z,1.20
2023-01-08T20:35:05.562Z,1.63
2023-01-08T20:37:33.401Z,1.80
2023-01-08T20:40:00.132Z,1.35
2023-01-08T20:42:33.243Z,2.10
2023-01-08T20:45:00.945Z,1.23
2023-01-08T20:47:27.430Z,1.38
2023-01-08T20:49:53.907Z,0.90
2023-01-08T20:52:20.438Z,1.13
2023-01-08T20:54:47.605Z,1.08
2023-01-08T20:57:14.076Z,0.73
2023-01-08T20:59:40.630Z,0.90
2023-01-08T21:02:07.266Z,0.90
2023-01-08T21:04:34.219Z,0.90
2023-01-08T21:07:00.768Z,1.10
2023-01-08T21:09:27.515Z,0.70
2023-01-08T21:11:54.071Z,0.77
2023-01-08T21:14:20.630Z,1.13
2023-01-08T21:16:47.517Z,1.30
2023-01-08T21:19:15.403Z,1.10
2023-01-08T21:21:42.365Z,1.17
2023-01-08T21:24:11.884Z,0.85
2023-01-08T21:26:39.113Z,0.90
2023-01-08T21:29:07.327Z,0.93
2023-01-08T21:31:35.182Z,1.10
2023-01-08T21:34:03.309Z,0.85
2023-01-08T21:36:31.661Z,0.85
2023-01-08T21:39:00.124Z,0.90
2023-01-08T21:41:46.959Z,0.95
2023-01-08T21:44:38.127Z,1.10
2023-01-08T21:47:07.633Z,1.13
2023-01-08T21:49:36.100Z,1.00
2023-01-08T21:52:22.571Z,1.02
2023-01-08T21:54:49.670Z,0.80
2023-01-08T21:57:16.784Z,1.10
2023-01-08T21:59:43.516Z,1.33
2023-01-08T22:02:17.752Z,0.98
2023-01-08T22:04:45.302Z,1.00
2023-01-08T22:07:12.660Z,0.85
2023-01-08T22:09:39.362Z,0.77
2023-01-08T22:12:06.959Z,1.30
2023-01-08T22:14:34.345Z,0.95
2023-01-08T22:17:01.056Z,0.65
2023-01-08T22:19:27.658Z,0.90
2023-01-08T22:21:54.181Z,0.80
2023-01-08T22:24:20.672Z,0.60
2023-01-08T22:26:48.613Z,1.20
2023-01-08T22:29:15.155Z,0.60
2023-01-08T22:31:41.720Z,0.60
2023-01-08T22:34:09.326Z,0.50
2023-01-08T22:36:35.842Z,0.80
2023-01-08T22:39:02.425Z,0.63
2023-01-08T22:41:28.943Z,0.80
2023-01-08T22:43:56.693Z,0.75
2023-01-08T22:46:24.404Z,0.80
2023-01-08T22:48:51.826Z,1.20
2023-01-08T22:51:27.340Z,0.68
2023-01-08T22:53:58.159Z,0.60
2023-01-08T22:56:25.578Z,0.73
2023-01-08T22:58:52.965Z,0.73
2023-01-08T23:01:22.953Z,0.77
2023-01-08T23:03:54.123Z,0.50
2023-01-08T23:06:23.459Z,1.00
2023-01-08T23:08:50.711Z,0.65
2023-01-08T23:11:18.701Z,1.17
2023-01-08T23:13:45.718Z,0.73
2023-01-08T23:16:14.323Z,0.70
2023-01-08T23:18:41.636Z,0.90
2023-01-08T23:21:11.445Z,0.70
2023-01-08T23:23:38.203Z,1.25
2023-01-08T23:26:16.124Z,0.85
2023-01-08T23:28:42.869Z,0.77
2023-01-08T23:31:11.785Z,0.80
2023-01-08T23:33:38.623Z,1.00
2023-01-08T23:36:05.888Z,0.90
2023-01-08T23:38:32.622Z,1.02
2023-01-08T23:40:59.556Z,0.60
2023-01-08T23:43:26.620Z,0.93
2023-01-08T23:45:53.999Z,0.85
2023-01-08T23:48:20.540Z,1.08
2023-01-08T23:50:47.030Z,1.13
2023-01-08T23:53:13.561Z,0.77
2023-01-08T23:55:40.116Z,0.70
2023-01-08T23:58:06.608Z,0.93
